createdAt,value
2023-01-25T00:01:59.376Z,27.25
2023-01-25T00:04:25.845Z,23.97
2023-01-25T00:06:52.324Z,27.80
2023-01-25T00:09:19.471Z,23.83
2023-01-25T00:11:46.529Z,23.92
2023-01-25T00:14:14.054Z,27.15
2023-01-25T00:16:40.653Z,24.60
2023-01-25T00:19:09.071Z,26.15
2023-01-25T00:21:36.502Z,24.70
2023-01-25T00:24:04.132Z,23.25
2023-01-25T00:26:31.762Z,25.77
2023-01-25T00:28:58.345Z,25.90
2023-01-25T00:31:33.890Z,25.67
2023-01-25T00:34:28.227Z,26.27
2023-01-25T00:36:57.673Z,25.52
2023-01-25T00:39:26.496Z,24.60
2023-01-25T00:41:53.123Z,24.67
2023-01-25T00:44:19.645Z,25.02
2023-01-25T00:46:46.261Z,23.73
2023-01-25T00:49:33.079Z,25.80
2023-01-25T00:51:59.876Z,25.33
2023-01-25T00:54:26.877Z,24.30
2023-01-25T00:56:53.555Z,25.13
2023-01-25T00:59:20.172Z,25.13
2023-01-25T01:01:46.516Z,25.75
2023-01-25T01:04:12.855Z,26.25
2023-01-25T01:06:40.542Z,23.83
2023-01-25T01:09:11.336Z,25.17
2023-01-25T01:11:37.662Z,24.00
2023-01-25T01:14:04.050Z,27.35
2023-01-25T01:16:30.458Z,33.47
2023-01-25T01:18:56.900Z,24.67
2023-01-25T01:21:23.815Z,22.42
2023-01-25T01:23:50.226Z,25.77
2023-01-25T01:26:18.134Z,22.95
2023-01-25T01:28:44.481Z,27.40
2023-01-25T01:31:31.182Z,24.30
2023-01-25T01:33:57.853Z,23.92
2023-01-25T01:36:27.471Z,24.75
2023-01-25T01:38:53.814Z,30.63
2023-01-25T01:41:20.374Z,26.58
2023-01-25T01:43:47.220Z,23.07
2023-01-25T01:46:24.155Z,26.33
2023-01-25T01:49:05.732Z,23.65
2023-01-25T01:51:47.050Z,28.63
2023-01-25T01:54:46.213Z,24.50
2023-01-25T01:57:26.750Z,25.23
2023-01-25T02:00:05.072Z,26.77
2023-01-25T02:02:31.547Z,24.23
2023-01-25T02:05:01.259Z,24.92
2023-01-25T02:07:34.670Z,23.30
2023-01-25T02:10:03.472Z,23.50
2023-01-25T02:12:29.919Z,22.65
2023-01-25T02:14:56.301Z,23.65
2023-01-25T02:17:34.374Z,25.05
2023-01-25T02:20:07.068Z,26.83
2023-01-25T02:22:44.872Z,23.00
2023-01-25T02:25:13.126Z,24.95
2023-01-25T02:27:44.661Z,27.42
2023-01-25T02:30:11.420Z,26.08
2023-01-25T02:32:38.237Z,21.63
2023-01-25T02:35:06.204Z,29.77
2023-01-25T02:37:33.080Z,22.17
2023-01-25T02:39:59.481Z,21.00
2023-01-25T02:42:29.514Z,21.98
2023-01-25T02:44:56.388Z,24.17
2023-01-25T02:47:22.862Z,23.47
2023-01-25T02:49:49.259Z,24.60
2023-01-25T02:52:15.547Z,22.00
2023-01-25T02:54:41.907Z,24.42
2023-01-25T02:57:08.337Z,27.95
2023-01-25T02:59:34.781Z,22.80
2023-01-25T03:02:01.291Z,23.50
2023-01-25T03:04:27.665Z,24.15
2023-01-25T03:06:54.110Z,22.67
2023-01-25T03:09:20.464Z,25.00
2023-01-25T03:11:46.842Z,23.30
2023-01-25T03:14:13.347Z,22.98
2023-01-25T03:16:39.834Z,26.05
2023-01-25T03:19:06.211Z,24.42
2023-01-25T03:21:32.590Z,26.50
2023-01-25T03:24:01.547Z,23.67
2023-01-25T03:26:29.055Z,22.33
2023-01-25T03:28:55.533Z,26.55
2023-01-25T03:31:21.910Z,23.30
2023-01-25T03:33:48.256Z,22.85
2023-01-25T03:36:14.640Z,27.43
2023-01-25T03:38:40.996Z,22.58
2023-01-25T03:41:08.887Z,22.25
2023-01-25T03:43:35.289Z,22.95
2023-01-25T03:46:02.107Z,24.25
2023-01-25T03:48:29.366Z,23.17
2023-01-25T03:50:57.941Z,23.42
2023-01-25T03:53:26.228Z,23.45
2023-01-25T03:55:53.517Z,24.45
2023-01-25T03:58:19.882Z,23.20
2023-01-25T04:00:46.271Z,24.37
2023-01-25T04:03:12.636Z,22.33
2023-01-25T04:05:38.964Z,22.40
2023-01-25T04:08:05.331Z,25.75
2023-01-25T04:10:31.692Z,24.23
2023-01-25T04:12:58.025Z,24.43
2023-01-25T04:15:24.436Z,26.02
2023-01-25T04:17:50.748Z,25.83
2023-01-25T04:20:17.259Z,23.50
2023-01-25T04:22:43.543Z,26.35
2023-01-25T04:25:10.386Z,25.93
2023-01-25T04:27:36.959Z,23.17
2023-01-25T04:30:03.946Z,21.00
2023-01-25T04:32:30.486Z,22.65
2023-01-25T04:34:57.505Z,22.42
2023-01-25T04:37:23.886Z,26.33
2023-01-25T04:39:50.171Z,22.60
2023-01-25T04:42:16.544Z,26.73
2023-01-25T04:44:42.834Z,23.95
2023-01-25T04:47:09.220Z,23.60
2023-01-25T04:49:35.561Z,26.50
2023-01-25T04:52:01.913Z,26.63
2023-01-25T04:54:28.284Z,30.00
2023-01-25T04:56:54.654Z,25.58
2023-01-25T04:59:21.096Z,29.67
2023-01-25T05:01:47.415Z,23.93
2023-01-25T05:04:13.767Z,29.92
2023-01-25T05:06:40.102Z,27.67
2023-01-25T05:09:06.564Z,27.88
2023-01-25T05:11:33.008Z,30.55
2023-01-25T05:13:59.369Z,29.50
2023-01-25T05:16:25.683Z,27.27
2023-01-25T05:18:52.113Z,22.95
2023-01-25T05:21:18.527Z,26.60
2023-01-25T05:23:44.981Z,27.42
2023-01-25T05:26:11.455Z,29.97
2023-01-25T05:28:37.807Z,30.75
2023-01-25T05:31:05.153Z,34.22
2023-01-25T05:33:31.665Z,30.98
2023-01-25T05:35:58.007Z,28.92
2023-01-25T05:38:25.099Z,33.10
2023-01-25T05:40:51.525Z,30.40
2023-01-25T05:43:17.980Z,31.10
2023-01-25T05:45:44.356Z,28.00
2023-01-25T05:48:10.799Z,26.63
2023-01-25T05:50:37.383Z,28.40
2023-01-25T05:53:03.872Z,27.92
2023-01-25T05:55:30.387Z,31.98
2023-01-25T05:57:56.735Z,27.27
2023-01-25T06:00:23.267Z,29.83
2023-01-25T06:02:49.789Z,26.03
2023-01-25T06:05:16.426Z,28.17
2023-01-25T06:07:42.824Z,29.95
2023-01-25T06:10:09.677Z,26.50
2023-01-25T06:12:36.000Z,27.27
2023-01-25T06:15:02.332Z,29.47
2023-01-25T06:17:28.717Z,31.83
2023-01-25T06:19:55.134Z,29.30
2023-01-25T06:22:21.583Z,30.88
2023-01-25T06:24:48.031Z,27.77
2023-01-25T06:27:14.401Z,32.67
2023-01-25T06:29:40.843Z,28.00
2023-01-25T06:32:07.236Z,37.08
2023-01-25T06:34:33.650Z,31.83
2023-01-25T06:37:00.034Z,37.53
2023-01-25T06:39:26.343Z,29.57
2023-01-25T06:41:52.684Z,31.50
2023-01-25T06:44:19.047Z,39.72
2023-01-25T06:46:45.538Z,42.17
2023-01-25T06:49:12.018Z,33.38
2023-01-25T06:51:38.449Z,39.87
2023-01-25T06:54:04.893Z,38.35
2023-01-25T06:56:31.265Z,33.55
2023-01-25T06:58:57.677Z,36.42
2023-01-25T07:01:25.035Z,30.65
2023-01-25T07:03:53.952Z,43.53
2023-01-25T07:06:21.176Z,32.90
2023-01-25T07:08:48.717Z,33.88
2023-01-25T07:11:15.992Z,39.15
2023-01-25T07:13:44.592Z,33.22
2023-01-25T07:16:14.462Z,33.40
2023-01-25T07:18:41.605Z,33.70
2023-01-25T07:21:11.739Z,40.63
2023-01-25T07:23:38.398Z,34.45
2023-01-25T07:26:06.293Z,31.65
2023-01-25T07:28:33.075Z,35.40
2023-01-25T07:31:08.709Z,33.97
2023-01-25T07:33:35.265Z,32.83
2023-01-25T07:36:03.641Z,32.03
2023-01-25T07:38:29.955Z,33.38
2023-01-25T07:40:56.542Z,32.50
2023-01-25T07:43:23.571Z,34.25
2023-01-25T07:45:50.103Z,34.53
2023-01-25T07:48:18.394Z,34.25
2023-01-25T07:50:45.045Z,34.85
2023-01-25T07:53:11.410Z,34.90
2023-01-25T07:55:37.851Z,32.42
2023-01-25T07:58:04.290Z,36.45
2023-01-25T08:00:30.848Z,33.88
2023-01-25T08:02:57.237Z,32.53
2023-01-25T08:05:23.580Z,38.27
2023-01-25T08:07:50.026Z,34.50
2023-01-25T08:10:16.841Z,32.83
2023-01-25T08:12:46.290Z,37.42
2023-01-25T08:15:13.948Z,33.67
2023-01-25T08:17:40.432Z,35.60
2023-01-25T08:20:08.012Z,32.50
2023-01-25T08:22:37.373Z,35.13
2023-01-25T08:25:04.511Z,36.22
2023-01-25T08:27:30.902Z,33.33
2023-01-25T08:29:57.293Z,35.93
2023-01-25T08:32:23.752Z,33.90
2023-01-25T08:34:50.396Z,30.70
2023-01-25T08:37:16.860Z,31.60
2023-01-25T08:39:43.214Z,35.05
2023-01-25T08:42:09.632Z,39.77
2023-01-25T08:44:36.000Z,33.53
2023-01-25T08:47:02.358Z,35.05
2023-01-25T08:49:28.783Z,38.22
2023-01-25T08:51:55.166Z,41.28
2023-01-25T08:54:21.489Z,45.37
2023-01-25T08:56:47.901Z,37.92
2023-01-25T08:59:14.370Z,37.20
2023-01-25T09:01:40.720Z,34.22
2023-01-25T09:04:07.114Z,34.72
2023-01-25T09:06:33.884Z,39.50
2023-01-25T09:09:00.326Z,41.67
2023-01-25T09:11:26.896Z,40.95
2023-01-25T09:13:53.323Z,39.78
2023-01-25T09:16:22.595Z,44.25
2023-01-25T09:18:50.727Z,39.67
2023-01-25T09:21:18.820Z,36.30
2023-01-25T09:24:05.118Z,37.33
2023-01-25T09:26:34.566Z,35.15
2023-01-25T09:29:01.184Z,35.50
2023-01-25T09:31:27.864Z,37.13
2023-01-25T09:33:54.527Z,34.22
2023-01-25T09:36:20.927Z,36.92
2023-01-25T09:38:47.283Z,37.28
2023-01-25T09:41:38.734Z,37.67
2023-01-25T09:44:27.121Z,37.43
2023-01-25T09:46:58.394Z,35.42
2023-01-25T09:49:43.356Z,40.67
2023-01-25T09:52:48.429Z,38.00
2023-01-25T09:55:18.934Z,40.17
2023-01-25T09:57:46.658Z,38.53
2023-01-25T10:00:26.150Z,37.90
2023-01-25T10:03:03.634Z,53.83
2023-01-25T10:05:42.526Z,40.20
2023-01-25T10:08:18.508Z,38.85
2023-01-25T10:10:46.907Z,36.10
2023-01-25T10:13:19.231Z,33.83
2023-01-25T10:15:52.899Z,36.78
2023-01-25T10:18:48.418Z,47.15
2023-01-25T10:21:42.646Z,41.53
2023-01-25T10:24:44.870Z,39.33
2023-01-25T10:27:48.871Z,42.08
2023-01-25T10:30:36.768Z,48.88
2023-01-25T10:33:13.759Z,42.80
2023-01-25T10:35:47.043Z,38.67
2023-01-25T10:38:34.832Z,39.20
2023-01-25T10:41:07.337Z,45.08
2023-01-25T10:43:33.688Z,40.63
2023-01-25T10:46:01.823Z,42.45
2023-01-25T10:48:35.082Z,50.08
2023-01-25T10:51:01.561Z,44.83
2023-01-25T10:53:37.144Z,43.90
2023-01-25T10:56:23.798Z,39.90
2023-01-25T10:58:52.505Z,41.22
2023-01-25T11:01:31.072Z,39.05
2023-01-25T11:03:58.531Z,41.87
2023-01-25T11:06:36.348Z,46.22
2023-01-25T11:09:32.954Z,52.08
2023-01-25T11:12:02.424Z,47.65
2023-01-25T11:14:33.076Z,49.75
2023-01-25T11:17:01.820Z,43.33
2023-01-25T11:19:28.104Z,44.72
2023-01-25T11:21:56.255Z,51.58
2023-01-25T11:24:26.659Z,44.67
2023-01-25T11:27:17.797Z,47.65
2023-01-25T11:29:45.211Z,47.83
2023-01-25T11:32:17.415Z,51.55
2023-01-25T11:34:46.066Z,48.63
2023-01-25T11:37:21.210Z,45.58
2023-01-25T11:40:12.715Z,44.40
2023-01-25T11:43:01.616Z,39.97
2023-01-25T11:45:57.097Z,38.30
2023-01-25T11:48:43.438Z,42.20
2023-01-25T11:51:40.829Z,42.05
2023-01-25T11:54:45.737Z,44.83
2023-01-25T11:57:49.239Z,49.57
2023-01-25T12:00:38.169Z,37.47
2023-01-25T12:03:36.841Z,41.78
2023-01-25T12:06:16.233Z,41.00
2023-01-25T12:09:18.061Z,37.58
2023-01-25T12:12:03.248Z,46.70
2023-01-25T12:14:35.604Z,38.33
2023-01-25T12:17:12.199Z,42.72
2023-01-25T12:19:50.158Z,37.40
2023-01-25T12:22:37.953Z,44.35
2023-01-25T12:25:16.483Z,38.47
2023-01-25T12:28:10.968Z,45.53
2023-01-25T12:30:58.960Z,42.05
2023-01-25T12:33:32.707Z,55.17
2023-01-25T12:36:20.418Z,46.78
2023-01-25T12:39:01.153Z,49.87
2023-01-25T12:41:51.763Z,44.65
2023-01-25T12:44:36.155Z,42.55
2023-01-25T12:47:15.110Z,42.22
2023-01-25T12:49:52.542Z,44.47
2023-01-25T12:52:46.876Z,41.23
2023-01-25T12:55:15.018Z,41.97
2023-01-25T12:57:58.990Z,40.80
2023-01-25T13:00:41.932Z,41.95
2023-01-25T13:03:52.148Z,41.65
2023-01-25T13:06:26.163Z,39.47
2023-01-25T13:09:10.085Z,47.33
2023-01-25T13:11:39.714Z,52.00
2023-01-25T13:14:18.049Z,55.10
2023-01-25T13:16:50.183Z,49.85
2023-01-25T13:19:38.021Z,43.07
2023-01-25T13:22:04.985Z,43.90
2023-01-25T13:24:33.908Z,46.70
2023-01-25T13:27:26.162Z,54.80
2023-01-25T13:30:15.112Z,50.90
2023-01-25T13:32:44.482Z,44.27
2023-01-25T13:35:38.781Z,48.13
2023-01-25T13:38:28.051Z,53.22
2023-01-25T13:41:13.183Z,41.80
2023-01-25T13:43:42.192Z,47.83
2023-01-25T13:46:11.906Z,46.30
2023-01-25T13:48:48.860Z,51.55
2023-01-25T13:51:18.235Z,44.40
2023-01-25T13:53:55.356Z,51.15
2023-01-25T13:56:34.001Z,56.17
2023-01-25T13:59:00.899Z,45.70
2023-01-25T14:01:30.592Z,53.80
2023-01-25T14:04:02.315Z,56.42
2023-01-25T14:06:39.674Z,53.53
2023-01-25T14:09:16.497Z,59.28
2023-01-25T14:11:55.739Z,70.10
2023-01-25T14:14:33.953Z,55.72
2023-01-25T14:17:22.023Z,52.47
2023-01-25T14:19:50.499Z,66.43
2023-01-25T14:22:27.338Z,65.30
2023-01-25T14:25:07.115Z,53.80
2023-01-25T14:27:45.061Z,48.15
2023-01-25T14:30:32.145Z,67.32
2023-01-25T14:33:04.430Z,48.35
2023-01-25T14:35:49.297Z,75.53
2023-01-25T14:38:33.191Z,58.90
2023-01-25T14:41:18.743Z,57.78
2023-01-25T14:43:57.156Z,73.15
2023-01-25T14:46:31.932Z,58.45
2023-01-25T14:49:08.435Z,65.00
2023-01-25T14:51:39.715Z,56.73
2023-01-25T14:54:15.966Z,54.90
2023-01-25T14:56:52.042Z,56.97
2023-01-25T14:59:44.518Z,53.58
2023-01-25T15:02:48.527Z,62.20
2023-01-25T15:05:33.033Z,57.67
2023-01-25T15:08:08.168Z,68.57
2023-01-25T15:10:36.653Z,68.00
2023-01-25T15:13:18.125Z,52.78
2023-01-25T15:15:56.418Z,65.43
2023-01-25T15:18:51.212Z,66.43
2023-01-25T15:21:29.496Z,58.65
2023-01-25T15:23:58.021Z,76.30
2023-01-25T15:26:27.322Z,70.32
2023-01-25T15:28:56.242Z,66.20
2023-01-25T15:31:32.018Z,70.50
2023-01-25T15:34:00.543Z,77.18
2023-01-25T15:36:27.681Z,70.85
2023-01-25T15:38:54.228Z,67.10
2023-01-25T15:41:20.704Z,62.92
2023-01-25T15:43:48.314Z,68.37
2023-01-25T15:46:21.625Z,76.50
2023-01-25T15:48:49.471Z,72.80
2023-01-25T15:51:16.243Z,71.25
2023-01-25T15:53:43.025Z,66.90
2023-01-25T15:56:24.091Z,61.97
2023-01-25T15:58:53.128Z,69.43
2023-01-25T16:01:20.540Z,54.20
2023-01-25T16:03:47.074Z,80.80
2023-01-25T16:06:30.315Z,79.07
2023-01-25T16:08:57.589Z,77.97
2023-01-25T16:11:24.422Z,69.07
2023-01-25T16:13:50.819Z,74.45
2023-01-25T16:16:19.512Z,75.30
2023-01-25T16:18:45.777Z,58.03
2023-01-25T16:21:12.660Z,64.70
2023-01-25T16:23:39.792Z,72.47
2023-01-25T16:26:27.343Z,82.15
2023-01-25T16:28:53.691Z,70.85
2023-01-25T16:31:31.747Z,82.28
2023-01-25T16:34:00.183Z,65.33
2023-01-25T16:36:26.685Z,70.07
2023-01-25T16:38:53.141Z,65.18
2023-01-25T16:41:19.564Z,71.68
2023-01-25T16:43:48.044Z,72.75
2023-01-25T16:46:21.627Z,60.57
2023-01-25T16:48:49.824Z,67.82
2023-01-25T16:51:20.311Z,71.32
2023-01-25T16:53:47.856Z,67.35
2023-01-25T16:56:25.233Z,74.30
2023-01-25T16:58:52.952Z,65.30
2023-01-25T17:01:21.051Z,76.95
2023-01-25T17:03:47.856Z,75.57
2023-01-25T17:06:20.055Z,77.38
2023-01-25T17:08:47.442Z,58.15
2023-01-25T17:11:14.521Z,64.00
2023-01-25T17:13:40.869Z,68.10
2023-01-25T17:16:08.080Z,61.63
2023-01-25T17:18:34.546Z,72.00
2023-01-25T17:21:03.878Z,67.28
2023-01-25T17:23:35.231Z,64.23
2023-01-25T17:26:05.756Z,71.10
2023-01-25T17:28:32.746Z,72.63
2023-01-25T17:30:59.352Z,79.85
2023-01-25T17:33:26.399Z,69.28
2023-01-25T17:35:52.927Z,69.87
2023-01-25T17:38:19.226Z,74.65
2023-01-25T17:40:45.602Z,72.30
2023-01-25T17:43:14.430Z,66.28
2023-01-25T17:45:40.861Z,66.70
2023-01-25T17:48:08.090Z,59.47
2023-01-25T17:50:35.587Z,70.00
2023-01-25T17:53:03.157Z,77.93
2023-01-25T17:55:30.066Z,62.70
2023-01-25T17:57:59.433Z,71.97
2023-01-25T18:00:25.759Z,67.53
2023-01-25T18:02:52.231Z,61.17
2023-01-25T18:05:19.085Z,67.82
2023-01-25T18:07:45.490Z,71.70
2023-01-25T18:10:13.562Z,72.10
2023-01-25T18:12:40.043Z,66.63
2023-01-25T18:15:06.802Z,67.68
2023-01-25T18:17:33.655Z,64.32
2023-01-25T18:20:00.011Z,53.22
2023-01-25T18:22:26.289Z,66.47
2023-01-25T18:24:52.608Z,64.60
2023-01-25T18:27:21.639Z,73.68
2023-01-25T18:30:03.777Z,80.70
2023-01-25T18:32:30.978Z,74.80
2023-01-25T18:34:57.329Z,68.93
2023-01-25T18:37:23.642Z,74.20
2023-01-25T18:39:54.791Z,64.03
2023-01-25T18:42:23.507Z,84.78
2023-01-25T18:44:49.788Z,86.10
2023-01-25T18:47:18.064Z,82.90
2023-01-25T18:49:49.527Z,73.13
2023-01-25T18:52:17.350Z,77.85
2023-01-25T18:54:44.855Z,85.05
2023-01-25T18:57:11.836Z,72.88
2023-01-25T18:59:38.365Z,62.35
2023-01-25T19:02:05.577Z,81.07
2023-01-25T19:04:31.993Z,90.35
2023-01-25T19:06:58.351Z,70.40
2023-01-25T19:09:25.254Z,85.20
2023-01-25T19:11:52.106Z,84.65
2023-01-25T19:14:18.779Z,78.80
2023-01-25T19:16:45.583Z,77.25
2023-01-25T19:19:12.029Z,94.30
2023-01-25T19:21:38.558Z,84.88
2023-01-25T19:24:10.484Z,84.00
2023-01-25T19:26:36.866Z,90.17
2023-01-25T19:29:03.694Z,74.53
2023-01-25T19:31:30.048Z,84.45
2023-01-25T19:34:01.615Z,92.93
2023-01-25T19:36:29.625Z,79.50
2023-01-25T19:38:56.525Z,89.90
2023-01-25T19:41:25.818Z,93.50
2023-01-25T19:43:56.714Z,83.40
2023-01-25T19:46:25.567Z,81.93
2023-01-25T19:48:52.904Z,96.20
2023-01-25T19:51:22.010Z,79.63
2023-01-25T19:53:55.629Z,91.43
2023-01-25T19:56:21.954Z,94.05
2023-01-25T19:58:48.918Z,85.57
2023-01-25T20:01:21.317Z,86.78
2023-01-25T20:03:47.927Z,83.23
2023-01-25T20:06:16.599Z,99.15
2023-01-25T20:08:45.510Z,98.75
2023-01-25T20:11:17.551Z,101.57
2023-01-25T20:13:43.871Z,99.78
2023-01-25T20:16:11.312Z,101.40
2023-01-25T20:18:38.010Z,93.18
2023-01-25T20:21:07.773Z,91.45
2023-01-25T20:23:36.142Z,88.85
2023-01-25T20:26:05.693Z,112.53
2023-01-25T20:28:34.143Z,107.17
2023-01-25T20:31:01.137Z,98.63
2023-01-25T20:33:27.531Z,102.63
2023-01-25T20:35:58.918Z,99.45
2023-01-25T20:38:29.294Z,108.22
2023-01-25T20:41:00.526Z,107.00
2023-01-25T20:43:26.804Z,102.55
2023-01-25T20:45:53.821Z,93.18
2023-01-25T20:48:20.130Z,86.18
2023-01-25T20:50:46.478Z,102.53
2023-01-25T20:53:12.768Z,86.77
2023-01-25T20:55:39.069Z,101.78
2023-01-25T20:58:06.550Z,99.20
2023-01-25T21:00:33.043Z,95.45
2023-01-25T21:02:59.494Z,100.18
2023-01-25T21:05:25.960Z,107.93
2023-01-25T21:07:52.409Z,94.63
2023-01-25T21:10:18.851Z,100.20
2023-01-25T21:12:45.227Z,111.47
2023-01-25T21:15:11.957Z,99.45
2023-01-25T21:17:38.392Z,90.07
2023-01-25T21:20:06.824Z,94.00
2023-01-25T21:22:33.238Z,91.85
2023-01-25T21:25:00.624Z,96.38
2023-01-25T21:27:27.254Z,96.03
2023-01-25T21:29:53.576Z,100.83
2023-01-25T21:32:19.935Z,91.60
2023-01-25T21:34:46.432Z,93.20
2023-01-25T21:37:12.815Z,90.18
2023-01-25T21:39:39.109Z,88.53
2023-01-25T21:42:05.427Z,88.90
2023-01-25T21:44:31.702Z,88.47
2023-01-25T21:47:27.718Z,90.78
2023-01-25T21:49:44.682Z,85.18
2023-01-25T21:52:10.948Z,95.28
2023-01-25T21:54:37.471Z,87.20
2023-01-25T21:57:08.997Z,86.88
2023-01-25T21:59:36.389Z,92.75
2023-01-25T22:02:04.216Z,98.00
2023-01-25T22:04:31.376Z,88.07
2023-01-25T22:06:57.693Z,101.13
2023-01-25T22:09:24.330Z,93.63
2023-01-25T22:11:50.604Z,83.28
2023-01-25T22:14:18.039Z,72.75
2023-01-25T22:16:44.609Z,80.88
2023-01-25T22:19:11.191Z,75.03
2023-01-25T22:21:37.557Z,80.63
2023-01-25T22:24:05.284Z,84.28
2023-01-25T22:27:25.878Z,80.30
2023-01-25T22:29:52.281Z,90.38
2023-01-25T22:32:18.591Z,73.87
2023-01-25T22:34:44.946Z,81.43
2023-01-25T22:37:11.914Z,82.70
2023-01-25T22:39:38.316Z,70.50
2023-01-25T22:42:04.815Z,77.10
2023-01-25T22:44:31.156Z,78.00
2023-01-25T22:46:57.487Z,85.20
2023-01-25T22:49:23.808Z,84.70
2023-01-25T22:51:50.163Z,77.05
2023-01-25T22:54:16.444Z,94.25
2023-01-25T22:56:42.755Z,74.37
2023-01-25T22:59:11.410Z,86.80
2023-01-25T23:01:37.748Z,83.40
2023-01-25T23:04:04.142Z,75.35
2023-01-25T23:06:32.738Z,73.55
2023-01-25T23:09:01.194Z,76.53
2023-01-25T23:11:29.833Z,86.40
2023-01-25T23:13:56.188Z,91.40
2023-01-25T23:16:22.540Z,79.10
2023-01-25T23:18:48.805Z,94.18
2023-01-25T23:21:16.959Z,92.33
2023-01-25T23:23:43.272Z,88.60
2023-01-25T23:26:09.673Z,92.45
2023-01-25T23:28:37.137Z,101.95
2023-01-25T23:31:12.460Z,97.75
2023-01-25T23:33:38.868Z,104.13
2023-01-25T23:36:09.597Z,91.35
2023-01-25T23:38:35.890Z,92.05
2023-01-25T23:41:02.244Z,103.47
2023-01-25T23:43:28.616Z,99.20
2023-01-25T23:45:55.031Z,87.00
2023-01-25T23:48:21.503Z,96.28
2023-01-25T23:50:47.872Z,92.43
2023-01-25T23:53:14.211Z,89.53
2023-01-25T23:55:40.499Z,108.70
2023-01-25T23:58:06.908Z,94.33
